sensor_id;sensor_type;location;lat;lon;timestamp;P1;durP1;ratioP1;P2;durP2;ratioP2
22186;SDS011;11259;52.146;12.844;2023-03-31T00:00:35;1.30;;;0.88;;
22186;SDS011;11259;52.146;12.844;2023-03-31T00:03:00;0.63;;;0.63;;
22186;SDS011;11259;52.146;12.844;2023-03-31T00:05:25;0.50;;;0.50;;
22186;SDS011;11259;52.146;12.844;2023-03-31T00:07:52;0.50;;;0.50;;
22186;SDS011;11259;52.146;12.844;2023-03-31T00:10:19;1.10;;;0.85;;
22186;SDS011;11259;52.146;12.844;2023-03-31T00:12:44;2.35;;;0.82;;
22186;SDS011;11259;52.146;12.844;2023-03-31T00:15:10;0.98;;;0.57;;
22186;SDS011;11259;52.146;12.844;2023-03-31T00:17:36;0.55;;;0.55;;
22186;SDS011;11259;52.146;12.844;2023-03-31T00:20:01;1.08;;;0.90;;
22186;SDS011;11259;52.146;12.844;2023-03-31T00:22:26;0.88;;;0.88;;
22186;SDS011;11259;52.146;12.844;2023-03-31T00:24:52;0.40;;;0.40;;
22186;SDS011;11259;52.146;12.844;2023-03-31T00:27:19;2.35;;;0.65;;
22186;SDS011;11259;52.146;12.844;2023-03-31T00:29:44;0.60;;;0.60;;
22186;SDS011;11259;52.146;12.844;2023-03-31T00:32:09;0.50;;;0.50;;
22186;SDS011;11259;52.146;12.844;2023-03-31T00:34:35;1.83;;;0.95;;
22186;SDS011;11259;52.146;12.844;2023-03-31T00:37:00;0.50;;;0.50;;
22186;SDS011;11259;52.146;12.844;2023-03-31T00:39:26;1.27;;;0.82;;
22186;SDS011;11259;52.146;12.844;2023-03-31T00:41:51;0.55;;;0.55;;
22186;SDS011;11259;52.146;12.844;2023-03-31T00:44:19;0.60;;;0.60;;
22186;SDS011;11259;52.146;12.844;2023-03-31T00:46:45;0.73;;;0.73;;
22186;SDS011;11259;52.146;12.844;2023-03-31T00:49:16;1.88;;;1.15;;
22186;SDS011;11259;52.146;12.844;2023-03-31T00:51:45;0.98;;;0.90;;
22186;SDS011;11259;52.146;12.844;2023-03-31T00:54:12;1.67;;;1.13;;
22186;SDS011;11259;52.146;12.844;2023-03-31T00:56:39;0.50;;;0.50;;
22186;SDS011;11259;52.146;12.844;2023-03-31T00:59:06;0.50;;;0.50;;
22186;SDS011;11259;52.146;12.844;2023-03-31T01:01:34;0.95;;;0.80;;
22186;SDS011;11259;52.146;12.844;2023-03-31T01:04:00;1.38;;;0.98;;
22186;SDS011;11259;52.146;12.844;2023-03-31T01:06:26;2.10;;;0.80;;
22186;SDS011;11259;52.146;12.844;2023-03-31T01:08:51;0.82;;;0.82;;
22186;SDS011;11259;52.146;12.844;2023-03-31T01:11:18;1.80;;;1.05;;
22186;SDS011;11259;52.146;12.844;2023-03-31T01:13:44;1.60;;;0.70;;
22186;SDS011;11259;52.146;12.844;2023-03-31T01:16:10;0.70;;;0.70;;
22186;SDS011;11259;52.146;12.844;2023-03-31T01:18:37;0.60;;;0.60;;
22186;SDS011;11259;52.146;12.844;2023-03-31T01:21:19;0.80;;;0.80;;
22186;SDS011;11259;52.146;12.844;2023-03-31T01:24:00;0.70;;;0.70;;
22186;SDS011;11259;52.146;12.844;2023-03-31T01:32:38;0.60;;;0.60;;
22186;SDS011;11259;52.146;12.844;2023-03-31T01:35:37;1.10;;;0.82;;
22186;SDS011;11259;52.146;12.844;2023-03-31T01:38:20;0.60;;;0.60;;
22186;SDS011;11259;52.146;12.844;2023-03-31T01:41:20;1.02;;;0.65;;
22186;SDS011;11259;52.146;12.844;2023-03-31T01:43:58;0.40;;;0.40;;
22186;SDS011;11259;52.146;12.844;2023-03-31T01:46:30;0.80;;;0.80;;
22186;SDS011;11259;52.146;12.844;2023-03-31T01:48:59;0.90;;;0.70;;
22186;SDS011;11259;52.146;12.844;2023-03-31T01:51:29;0.60;;;0.60;;
22186;SDS011;11259;52.146;12.844;2023-03-31T01:53:59;0.88;;;0.82;;
22186;SDS011;11259;52.146;12.844;2023-03-31T01:56:30;0.60;;;0.60;;
22186;SDS011;11259;52.146;12.844;2023-03-31T01:58:57;0.50;;;0.50;;
22186;SDS011;11259;52.146;12.844;2023-03-31T02:01:26;6.75;;;1.45;;
22186;SDS011;11259;52.146;12.844;2023-03-31T02:03:52;0.60;;;0.60;;
22186;SDS011;11259;52.146;12.844;2023-03-31T02:06:21;2.85;;;1.02;;
22186;SDS011;11259;52.146;12.844;2023-03-31T02:08:50;1.20;;;0.60;;
22186;SDS011;11259;52.146;12.844;2023-03-31T02:11:18;1.17;;;0.50;;
22186;SDS011;11259;52.146;12.844;2023-03-31T02:13:45;0.60;;;0.60;;
22186;SDS011;11259;52.146;12.844;2023-03-31T02:16:12;0.98;;;0.80;;
22186;SDS011;11259;52.146;12.844;2023-03-31T02:18:39;0.73;;;0.73;;
22186;SDS011;11259;52.146;12.844;2023-03-31T02:21:06;0.50;;;0.50;;
22186;SDS011;11259;52.146;12.844;2023-03-31T02:23:31;0.60;;;0.60;;
22186;SDS011;11259;52.146;12.844;2023-03-31T02:25:58;0.88;;;0.88;;
22186;SDS011;11259;52.146;12.844;2023-03-31T02:28:26;0.50;;;0.50;;
22186;SDS011;11259;52.146;12.844;2023-03-31T02:30:55;1.13;;;0.68;;
22186;SDS011;11259;52.146;12.844;2023-03-31T02:33:26;0.60;;;0.60;;
22186;SDS011;11259;52.146;12.844;2023-03-31T02:35:51;0.75;;;0.75;;
22186;SDS011;11259;52.146;12.844;2023-03-31T02:38:17;0.63;;;0.60;;
22186;SDS011;11259;52.146;12.844;2023-03-31T02:40:42;0.60;;;0.60;;
22186;SDS011;11259;52.146;12.844;2023-03-31T02:43:07;0.60;;;0.60;;
22186;SDS011;11259;52.146;12.844;2023-03-31T02:45:37;1.88;;;1.08;;
22186;SDS011;11259;52.146;12.844;2023-03-31T02:48:06;0.50;;;0.50;;
22186;SDS011;11259;52.146;12.844;2023-03-31T02:50:36;3.15;;;0.80;;
22186;SDS011;11259;52.146;12.844;2023-03-31T02:53:10;0.75;;;0.75;;
22186;SDS011;11259;52.146;12.844;2023-03-31T02:55:51;0.68;;;0.68;;
22186;SDS011;11259;52.146;12.844;2023-03-31T02:58:25;0.50;;;0.50;;
22186;SDS011;11259;52.146;12.844;2023-03-31T03:01:18;0.52;;;0.52;;
22186;SDS011;11259;52.146;12.844;2023-03-31T03:03:56;0.90;;;0.70;;
22186;SDS011;11259;52.146;12.844;2023-03-31T03:06:28;0.70;;;0.70;;
22186;SDS011;11259;52.146;12.844;2023-03-31T03:09:01;1.80;;;0.75;;
22186;SDS011;11259;52.146;12.844;2023-03-31T03:11:34;1.30;;;0.55;;
22186;SDS011;11259;52.146;12.844;2023-03-31T03:14:04;0.98;;;0.70;;
22186;SDS011;11259;52.146;12.844;2023-03-31T03:16:34;0.60;;;0.60;;
22186;SDS011;11259;52.146;12.844;2023-03-31T03:19:04;0.70;;;0.70;;
22186;SDS011;11259;52.146;12.844;2023-03-31T03:21:30;0.98;;;0.95;;
22186;SDS011;11259;52.146;12.844;2023-03-31T03:23:56;0.63;;;0.63;;
22186;SDS011;11259;52.146;12.844;2023-03-31T03:26:21;0.63;;;0.63;;
22186;SDS011;11259;52.146;12.844;2023-03-31T03:28:47;1.10;;;1.10;;
22186;SDS011;11259;52.146;12.844;2023-03-31T03:31:13;0.68;;;0.68;;
22186;SDS011;11259;52.146;12.844;2023-03-31T03:33:38;0.80;;;0.80;;
22186;SDS011;11259;52.146;12.844;2023-03-31T03:36:06;0.60;;;0.60;;
22186;SDS011;11259;52.146;12.844;2023-03-31T03:38:31;0.60;;;0.60;;
22186;SDS011;11259;52.146;12.844;2023-03-31T03:40:57;0.65;;;0.65;;
22186;SDS011;11259;52.146;12.844;2023-03-31T03:43:22;0.70;;;0.70;;
22186;SDS011;11259;52.146;12.844;2023-03-31T03:45:48;1.10;;;0.95;;
22186;SDS011;11259;52.146;12.844;2023-03-31T03:48:13;2.30;;;0.80;;
22186;SDS011;11259;52.146;12.844;2023-03-31T03:50:38;0.70;;;0.70;;
22186;SDS011;11259;52.146;12.844;2023-03-31T03:53:05;0.98;;;0.60;;
22186;SDS011;11259;52.146;12.844;2023-03-31T03:55:30;1.98;;;0.70;;
22186;SDS011;11259;52.146;12.844;2023-03-31T03:57:56;0.77;;;0.77;;
22186;SDS011;11259;52.146;12.844;2023-03-31T04:00:21;0.60;;;0.60;;
22186;SDS011;11259;52.146;12.844;2023-03-31T04:02:46;1.50;;;0.95;;
22186;SDS011;11259;52.146;12.844;2023-03-31T04:05:12;0.60;;;0.60;;
22186;SDS011;11259;52.146;12.844;2023-03-31T04:07:37;0.50;;;0.50;;
22186;SDS011;11259;52.146;12.844;2023-03-31T04:10:04;0.98;;;0.82;;
22186;SDS011;11259;52.146;12.844;2023-03-31T04:12:32;0.57;;;0.57;;
22186;SDS011;11259;52.146;12.844;2023-03-31T04:14:58;0.43;;;0.43;;
22186;SDS011;11259;52.146;12.844;2023-03-31T04:17:23;1.10;;;0.90;;
22186;SDS011;11259;52.146;12.844;2023-03-31T04:19:48;0.77;;;0.70;;
22186;SDS011;11259;52.146;12.844;2023-03-31T04:22:14;0.57;;;0.57;;
22186;SDS011;11259;52.146;12.844;2023-03-31T04:24:39;0.95;;;0.68;;
22186;SDS011;11259;52.146;12.844;2023-03-31T04:27:06;0.55;;;0.55;;
22186;SDS011;11259;52.146;12.844;2023-03-31T04:29:31;1.08;;;0.93;;
22186;SDS011;11259;52.146;12.844;2023-03-31T04:31:57;0.85;;;0.85;;
22186;SDS011;11259;52.146;12.844;2023-03-31T04:34:22;1.30;;;0.90;;
22186;SDS011;11259;52.146;12.844;2023-03-31T04:36:47;2.47;;;1.02;;
22186;SDS011;11259;52.146;12.844;2023-03-31T04:39:13;0.60;;;0.60;;
22186;SDS011;11259;52.146;12.844;2023-03-31T04:41:40;0.65;;;0.60;;
22186;SDS011;11259;52.146;12.844;2023-03-31T04:44:06;1.08;;;0.95;;
22186;SDS011;11259;52.146;12.844;2023-03-31T04:46:32;0.60;;;0.60;;
22186;SDS011;11259;52.146;12.844;2023-03-31T04:48:58;0.60;;;0.60;;
22186;SDS011;11259;52.146;12.844;2023-03-31T04:51:23;1.15;;;0.65;;
22186;SDS011;11259;52.146;12.844;2023-03-31T04:53:49;0.70;;;0.70;;
22186;SDS011;11259;52.146;12.844;2023-03-31T04:56:14;0.60;;;0.60;;
22186;SDS011;11259;52.146;12.844;2023-03-31T04:58:39;2.83;;;0.70;;
22186;SDS011;11259;52.146;12.844;2023-03-31T05:01:06;0.70;;;0.70;;
22186;SDS011;11259;52.146;12.844;2023-03-31T05:03:31;2.25;;;0.95;;
22186;SDS011;11259;52.146;12.844;2023-03-31T05:05:57;3.53;;;1.35;;
22186;SDS011;11259;52.146;12.844;2023-03-31T05:08:22;0.80;;;0.80;;
22186;SDS011;11259;52.146;12.844;2023-03-31T05:10:48;1.50;;;1.05;;
22186;SDS011;11259;52.146;12.844;2023-03-31T05:13:13;0.90;;;0.90;;
22186;SDS011;11259;52.146;12.844;2023-03-31T05:15:39;0.82;;;0.82;;
22186;SDS011;11259;52.146;12.844;2023-03-31T05:18:06;1.70;;;0.95;;
22186;SDS011;11259;52.146;12.844;2023-03-31T05:20:31;0.80;;;0.80;;
22186;SDS011;11259;52.146;12.844;2023-03-31T05:22:57;1.75;;;1.17;;
22186;SDS011;11259;52.146;12.844;2023-03-31T05:25:23;1.45;;;1.30;;
22186;SDS011;11259;52.146;12.844;2023-03-31T05:27:48;1.10;;;1.08;;
22186;SDS011;11259;52.146;12.844;2023-03-31T05:30:13;1.02;;;0.90;;
22186;SDS011;11259;52.146;12.844;2023-03-31T05:32:40;0.85;;;0.85;;
22186;SDS011;11259;52.146;12.844;2023-03-31T05:35:07;2.80;;;1.35;;
22186;SDS011;11259;52.146;12.844;2023-03-31T05:37:33;0.88;;;0.88;;
22186;SDS011;11259;52.146;12.844;2023-03-31T05:39:58;0.75;;;0.75;;
22186;SDS011;11259;52.146;12.844;2023-03-31T05:42:23;2.05;;;1.38;;
22186;SDS011;11259;52.146;12.844;2023-03-31T05:44:49;0.80;;;0.80;;
22186;SDS011;11259;52.146;12.844;2023-03-31T05:47:14;2.28;;;1.52;;
22186;SDS011;11259;52.146;12.844;2023-03-31T05:49:40;3.15;;;1.02;;
22186;SDS011;11259;52.146;12.844;2023-03-31T05:52:07;3.00;;;0.90;;
22186;SDS011;11259;52.146;12.844;2023-03-31T05:54:32;1.75;;;1.10;;
22186;SDS011;11259;52.146;12.844;2023-03-31T05:56:58;0.80;;;0.80;;
22186;SDS011;11259;52.146;12.844;2023-03-31T05:59:23;1.73;;;0.93;;
22186;SDS011;11259;52.146;12.844;2023-03-31T06:01:49;0.90;;;0.70;;
22186;SDS011;11259;52.146;12.844;2023-03-31T06:04:14;2.58;;;1.10;;
22186;SDS011;11259;52.146;12.844;2023-03-31T06:06:40;1.67;;;1.10;;
22186;SDS011;11259;52.146;12.844;2023-03-31T06:09:06;1.73;;;1.40;;
22186;SDS011;11259;52.146;12.844;2023-03-31T06:11:32;1.20;;;0.80;;
22186;SDS011;11259;52.146;12.844;2023-03-31T06:13:57;1.15;;;1.05;;
22186;SDS011;11259;52.146;12.844;2023-03-31T06:16:23;1.08;;;0.95;;
22186;SDS011;11259;52.146;12.844;2023-03-31T06:18:48;1.00;;;1.00;;
22186;SDS011;11259;52.146;12.844;2023-03-31T06:21:14;1.75;;;1.23;;
22186;SDS011;11259;52.146;12.844;2023-03-31T06:23:40;1.38;;;1.20;;
22186;SDS011;11259;52.146;12.844;2023-03-31T06:26:07;2.58;;;1.67;;
22186;SDS011;11259;52.146;12.844;2023-03-31T06:28:33;3.20;;;1.77;;
22186;SDS011;11259;52.146;12.844;2023-03-31T06:30:59;2.97;;;1.70;;
22186;SDS011;11259;52.146;12.844;2023-03-31T06:33:26;2.47;;;1.30;;
22186;SDS011;11259;52.146;12.844;2023-03-31T06:35:53;2.45;;;1.48;;
22186;SDS011;11259;52.146;12.844;2023-03-31T06:38:19;1.80;;;1.20;;
22186;SDS011;11259;52.146;12.844;2023-03-31T06:40:44;1.20;;;1.08;;
22186;SDS011;11259;52.146;12.844;2023-03-31T06:43:11;0.88;;;0.88;;
22186;SDS011;11259;52.146;12.844;2023-03-31T06:45:36;2.40;;;1.00;;
22186;SDS011;11259;52.146;12.844;2023-03-31T06:48:02;0.77;;;0.77;;
22186;SDS011;11259;52.146;12.844;2023-03-31T06:50:27;1.95;;;1.00;;
22186;SDS011;11259;52.146;12.844;2023-03-31T06:52:52;1.52;;;0.90;;
22186;SDS011;11259;52.146;12.844;2023-03-31T06:55:18;0.77;;;0.70;;
22186;SDS011;11259;52.146;12.844;2023-03-31T06:57:43;1.25;;;1.15;;
22186;SDS011;11259;52.146;12.844;2023-03-31T07:00:10;2.28;;;1.00;;
22186;SDS011;11259;52.146;12.844;2023-03-31T07:02:36;2.28;;;0.80;;
22186;SDS011;11259;52.146;12.844;2023-03-31T07:05:02;0.65;;;0.65;;
22186;SDS011;11259;52.146;12.844;2023-03-31T07:07:29;0.63;;;0.63;;
22186;SDS011;11259;52.146;12.844;2023-03-31T07:09:55;1.65;;;0.70;;
22186;SDS011;11259;52.146;12.844;2023-03-31T07:12:20;0.50;;;0.45;;
22186;SDS011;11259;52.146;12.844;2023-03-31T07:14:45;0.70;;;0.60;;
22186;SDS011;11259;52.146;12.844;2023-03-31T07:17:12;0.60;;;0.55;;
22186;SDS011;11259;52.146;12.844;2023-03-31T07:19:37;2.58;;;1.10;;
22186;SDS011;11259;52.146;12.844;2023-03-31T07:22:03;0.85;;;0.80;;
22186;SDS011;11259;52.146;12.844;2023-03-31T07:24:28;0.98;;;0.90;;
22186;SDS011;11259;52.146;12.844;2023-03-31T07:26:53;0.77;;;0.70;;
22186;SDS011;11259;52.146;12.844;2023-03-31T07:29:19;1.50;;;1.00;;
22186;SDS011;11259;52.146;12.844;2023-03-31T07:31:45;1.27;;;0.90;;
22186;SDS011;11259;52.146;12.844;2023-03-31T07:34:12;1.65;;;1.10;;
22186;SDS011;11259;52.146;12.844;2023-03-31T07:36:37;0.70;;;0.70;;
22186;SDS011;11259;52.146;12.844;2023-03-31T07:39:03;3.25;;;1.00;;
22186;SDS011;11259;52.146;12.844;2023-03-31T07:41:29;0.50;;;0.50;;
22186;SDS011;11259;52.146;12.844;2023-03-31T07:43:54;0.60;;;0.60;;
22186;SDS011;11259;52.146;12.844;2023-03-31T07:46:21;0.60;;;0.60;;
22186;SDS011;11259;52.146;12.844;2023-03-31T07:48:48;2.65;;;0.90;;
22186;SDS011;11259;52.146;12.844;2023-03-31T07:51:15;2.03;;;0.70;;
22186;SDS011;11259;52.146;12.844;2023-03-31T07:53:42;1.27;;;1.05;;
22186;SDS011;11259;52.146;12.844;2023-03-31T07:56:07;1.55;;;0.93;;
22186;SDS011;11259;52.146;12.844;2023-03-31T07:58:33;0.50;;;0.50;;
22186;SDS011;11259;52.146;12.844;2023-03-31T08:00:58;0.60;;;0.60;;
22186;SDS011;11259;52.146;12.844;2023-03-31T08:03:24;0.60;;;0.60;;
22186;SDS011;11259;52.146;12.844;2023-03-31T08:05:50;0.80;;;0.80;;
22186;SDS011;11259;52.146;12.844;2023-03-31T08:08:16;1.30;;;1.20;;
22186;SDS011;11259;52.146;12.844;2023-03-31T08:10:42;1.10;;;0.70;;
22186;SDS011;11259;52.146;12.844;2023-03-31T08:13:07;0.80;;;0.80;;
22186;SDS011;11259;52.146;12.844;2023-03-31T08:15:32;0.82;;;0.60;;
22186;SDS011;11259;52.146;12.844;2023-03-31T08:17:58;1.33;;;1.23;;
22186;SDS011;11259;52.146;12.844;2023-03-31T08:20:23;1.65;;;0.75;;
22186;SDS011;11259;52.146;12.844;2023-03-31T08:22:48;2.97;;;1.23;;
22186;SDS011;11259;52.146;12.844;2023-03-31T08:25:15;0.50;;;0.50;;
22186;SDS011;11259;52.146;12.844;2023-03-31T08:27:40;1.17;;;0.70;;
22186;SDS011;11259;52.146;12.844;2023-03-31T08:30:07;0.70;;;0.70;;
22186;SDS011;11259;52.146;12.844;2023-03-31T08:32:33;0.63;;;0.63;;
22186;SDS011;11259;52.146;12.844;2023-03-31T08:34:59;0.73;;;0.73;;
22186;SDS011;11259;52.146;12.844;2023-03-31T08:37:25;0.77;;;0.77;;
22186;SDS011;11259;52.146;12.844;2023-03-31T08:39:50;0.70;;;0.70;;
22186;SDS011;11259;52.146;12.844;2023-03-31T08:42:18;0.60;;;0.60;;
22186;SDS011;11259;52.146;12.844;2023-03-31T08:44:47;1.15;;;0.85;;
22186;SDS011;11259;52.146;12.844;2023-03-31T08:47:20;0.50;;;0.50;;
22186;SDS011;11259;52.146;12.844;2023-03-31T08:49:48;0.70;;;0.70;;
22186;SDS011;11259;52.146;12.844;2023-03-31T08:52:16;0.70;;;0.70;;
22186;SDS011;11259;52.146;12.844;2023-03-31T08:54:44;0.98;;;0.73;;
22186;SDS011;11259;52.146;12.844;2023-03-31T08:57:11;1.58;;;0.70;;
22186;SDS011;11259;52.146;12.844;2023-03-31T08:59:41;0.80;;;0.80;;
22186;SDS011;11259;52.146;12.844;2023-03-31T09:02:09;2.92;;;1.23;;
22186;SDS011;11259;52.146;12.844;2023-03-31T09:04:44;0.98;;;0.73;;
22186;SDS011;11259;52.146;12.844;2023-03-31T09:07:31;0.57;;;0.57;;
22186;SDS011;11259;52.146;12.844;2023-03-31T09:10:02;1.58;;;0.93;;
22186;SDS011;11259;52.146;12.844;2023-03-31T09:12:37;0.60;;;0.60;;
22186;SDS011;11259;52.146;12.844;2023-03-31T09:15:11;0.52;;;0.52;;
22186;SDS011;11259;52.146;12.844;2023-03-31T09:17:39;1.15;;;1.02;;
22186;SDS011;11259;52.146;12.844;2023-03-31T09:20:06;0.60;;;0.60;;
22186;SDS011;11259;52.146;12.844;2023-03-31T09:22:37;0.60;;;0.60;;
22186;SDS011;11259;52.146;12.844;2023-03-31T09:25:06;0.60;;;0.60;;
22186;SDS011;11259;52.146;12.844;2023-03-31T09:27:35;0.73;;;0.73;;
22186;SDS011;11259;52.146;12.844;2023-03-31T09:30:03;0.70;;;0.50;;
22186;SDS011;11259;52.146;12.844;2023-03-31T09:32:36;0.55;;;0.43;;
22186;SDS011;11259;52.146;12.844;2023-03-31T09:35:12;0.63;;;0.63;;
22186;SDS011;11259;52.146;12.844;2023-03-31T09:37:39;1.42;;;1.17;;
22186;SDS011;11259;52.146;12.844;2023-03-31T09:40:05;1.17;;;0.65;;
22186;SDS011;11259;52.146;12.844;2023-03-31T09:42:32;0.50;;;0.50;;
22186;SDS011;11259;52.146;12.844;2023-03-31T09:44:57;0.80;;;0.80;;
22186;SDS011;11259;52.146;12.844;2023-03-31T09:47:27;1.30;;;0.70;;
22186;SDS011;11259;52.146;12.844;2023-03-31T09:49:56;7.85;;;1.38;;
22186;SDS011;11259;52.146;12.844;2023-03-31T09:52:25;0.77;;;0.70;;
22186;SDS011;11259;52.146;12.844;2023-03-31T09:54:52;0.80;;;0.80;;
22186;SDS011;11259;52.146;12.844;2023-03-31T09:57:22;0.73;;;0.73;;
22186;SDS011;11259;52.146;12.844;2023-03-31T09:59:49;1.30;;;0.80;;
22186;SDS011;11259;52.146;12.844;2023-03-31T10:02:20;1.83;;;0.73;;
22186;SDS011;11259;52.146;12.844;2023-03-31T10:04:52;1.38;;;0.88;;
22186;SDS011;11259;52.146;12.844;2023-03-31T10:07:19;4.18;;;1.02;;
22186;SDS011;11259;52.146;12.844;2023-03-31T10:09:45;0.88;;;0.88;;
22186;SDS011;11259;52.146;12.844;2023-03-31T10:12:14;1.50;;;1.02;;
22186;SDS011;11259;52.146;12.844;2023-03-31T10:14:41;1.15;;;1.05;;
22186;SDS011;11259;52.146;12.844;2023-03-31T10:17:11;1.20;;;1.10;;
22186;SDS011;11259;52.146;12.844;2023-03-31T10:19:42;2.30;;;1.98;;
22186;SDS011;11259;52.146;12.844;2023-03-31T10:22:13;2.45;;;1.50;;
22186;SDS011;11259;52.146;12.844;2023-03-31T10:24:41;2.08;;;1.60;;
22186;SDS011;11259;52.146;12.844;2023-03-31T10:27:12;2.75;;;1.80;;
22186;SDS011;11259;52.146;12.844;2023-03-31T10:29:44;3.85;;;1.90;;
22186;SDS011;11259;52.146;12.844;2023-03-31T10:32:10;2.03;;;1.50;;
22186;SDS011;11259;52.146;12.844;2023-03-31T10:34:47;2.38;;;1.70;;
22186;SDS011;11259;52.146;12.844;2023-03-31T10:37:13;2.00;;;1.52;;
22186;SDS011;11259;52.146;12.844;2023-03-31T10:39:41;2.42;;;1.52;;
22186;SDS011;11259;52.146;12.844;2023-03-31T10:42:07;4.15;;;1.90;;
22186;SDS011;11259;52.146;12.844;2023-03-31T10:44:34;1.63;;;1.25;;
22186;SDS011;11259;52.146;12.844;2023-03-31T10:47:04;2.50;;;1.92;;
22186;SDS011;11259;52.146;12.844;2023-03-31T10:49:33;4.03;;;1.50;;
22186;SDS011;11259;52.146;12.844;2023-03-31T10:52:10;1.48;;;1.25;;
22186;SDS011;11259;52.146;12.844;2023-03-31T10:54:43;2.35;;;1.48;;
22186;SDS011;11259;52.146;12.844;2023-03-31T10:57:10;3.92;;;1.65;;
22186;SDS011;11259;52.146;12.844;2023-03-31T10:59:39;2.08;;;1.50;;
22186;SDS011;11259;52.146;12.844;2023-03-31T11:02:14;1.35;;;1.10;;
22186;SDS011;11259;52.146;12.844;2023-03-31T11:04:49;2.67;;;1.58;;
22186;SDS011;11259;52.146;12.844;2023-03-31T11:07:31;2.13;;;1.70;;
22186;SDS011;11259;52.146;12.844;2023-03-31T11:10:13;2.72;;;1.60;;
22186;SDS011;11259;52.146;12.844;2023-03-31T11:12:46;1.92;;;1.73;;
22186;SDS011;11259;52.146;12.844;2023-03-31T11:15:16;3.10;;;1.30;;
22186;SDS011;11259;52.146;12.844;2023-03-31T11:17:53;4.22;;;1.48;;
22186;SDS011;11259;52.146;12.844;2023-03-31T11:20:25;3.97;;;1.83;;
22186;SDS011;11259;52.146;12.844;2023-03-31T11:22:55;1.85;;;1.20;;
22186;SDS011;11259;52.146;12.844;2023-03-31T11:25:26;5.90;;;1.88;;
22186;SDS011;11259;52.146;12.844;2023-03-31T11:28:01;3.47;;;1.65;;
22186;SDS011;11259;52.146;12.844;2023-03-31T11:30:44;1.85;;;1.55;;
22186;SDS011;11259;52.146;12.844;2023-03-31T11:33:16;2.38;;;1.50;;
22186;SDS011;11259;52.146;12.844;2023-03-31T11:36:05;2.00;;;1.40;;
22186;SDS011;11259;52.146;12.844;2023-03-31T11:38:40;4.15;;;2.00;;
22186;SDS011;11259;52.146;12.844;2023-03-31T11:41:12;2.60;;;2.20;;
22186;SDS011;11259;52.146;12.844;2023-03-31T11:43:39;4.32;;;2.35;;
22186;SDS011;11259;52.146;12.844;2023-03-31T11:46:07;2.65;;;1.77;;
22186;SDS011;11259;52.146;12.844;2023-03-31T11:48:37;2.95;;;2.33;;
22186;SDS011;11259;52.146;12.844;2023-03-31T11:51:06;4.43;;;2.20;;
22186;SDS011;11259;52.146;12.844;2023-03-31T11:53:36;5.40;;;2.45;;
22186;SDS011;11259;52.146;12.844;2023-03-31T11:56:04;2.70;;;2.42;;
22186;SDS011;11259;52.146;12.844;2023-03-31T11:58:32;4.43;;;2.45;;
22186;SDS011;11259;52.146;12.844;2023-03-31T12:01:02;2.78;;;2.03;;
22186;SDS011;11259;52.146;12.844;2023-03-31T12:03:32;3.03;;;2.10;;
22186;SDS011;11259;52.146;12.844;2023-03-31T12:06:02;4.60;;;2.53;;
22186;SDS011;11259;52.146;12.844;2023-03-31T12:08:30;3.20;;;2.55;;
22186;SDS011;11259;52.146;12.844;2023-03-31T12:10:59;3.78;;;2.60;;
22186;SDS011;11259;52.146;12.844;2023-03-31T12:13:33;2.83;;;2.15;;
22186;SDS011;11259;52.146;12.844;2023-03-31T12:16:03;3.08;;;1.92;;
22186;SDS011;11259;52.146;12.844;2023-03-31T12:18:30;5.30;;;2.10;;
22186;SDS011;11259;52.146;12.844;2023-03-31T12:20:59;1.67;;;1.48;;
22186;SDS011;11259;52.146;12.844;2023-03-31T12:23:27;1.42;;;1.33;;
22186;SDS011;11259;52.146;12.844;2023-03-31T12:25:54;1.35;;;1.25;;
22186;SDS011;11259;52.146;12.844;2023-03-31T12:28:23;1.42;;;1.30;;
22186;SDS011;11259;52.146;12.844;2023-03-31T12:30:50;1.73;;;1.30;;
22186;SDS011;11259;52.146;12.844;2023-03-31T12:33:17;1.30;;;1.20;;
22186;SDS011;11259;52.146;12.844;2023-03-31T12:35:48;1.88;;;1.42;;
22186;SDS011;11259;52.146;12.844;2023-03-31T12:38:28;1.30;;;1.17;;
22186;SDS011;11259;52.146;12.844;2023-03-31T12:41:04;1.52;;;1.08;;
22186;SDS011;11259;52.146;12.844;2023-03-31T12:43:39;1.52;;;1.40;;
22186;SDS011;11259;52.146;12.844;2023-03-31T12:46:34;1.65;;;1.30;;
22186;SDS011;11259;52.146;12.844;2023-03-31T12:49:14;2.75;;;1.55;;
22186;SDS011;11259;52.146;12.844;2023-03-31T12:51:53;1.38;;;1.20;;
22186;SDS011;11259;52.146;12.844;2023-03-31T12:54:34;2.25;;;1.10;;
22186;SDS011;11259;52.146;12.844;2023-03-31T12:57:18;0.93;;;0.90;;
22186;SDS011;11259;52.146;12.844;2023-03-31T12:59:44;1.10;;;1.10;;
22186;SDS011;11259;52.146;12.844;2023-03-31T13:02:16;3.28;;;1.27;;
22186;SDS011;11259;52.146;12.844;2023-03-31T13:04:45;1.50;;;0.82;;
22186;SDS011;11259;52.146;12.844;2023-03-31T13:07:11;0.95;;;0.90;;
22186;SDS011;11259;52.146;12.844;2023-03-31T13:09:48;1.08;;;0.95;;
22186;SDS011;11259;52.146;12.844;2023-03-31T13:12:14;0.88;;;0.85;;
22186;SDS011;11259;52.146;12.844;2023-03-31T13:14:42;1.00;;;0.90;;
22186;SDS011;11259;52.146;12.844;2023-03-31T13:17:17;0.98;;;0.88;;
22186;SDS011;11259;52.146;12.844;2023-03-31T13:19:45;0.80;;;0.80;;
22186;SDS011;11259;52.146;12.844;2023-03-31T13:22:26;0.80;;;0.80;;
22186;SDS011;11259;52.146;12.844;2023-03-31T13:30:51;0.70;;;0.70;;
22186;SDS011;11259;52.146;12.844;2023-03-31T13:33:20;1.65;;;0.98;;
22186;SDS011;11259;52.146;12.844;2023-03-31T13:35:49;0.68;;;0.68;;
22186;SDS011;11259;52.146;12.844;2023-03-31T13:38:18;0.82;;;0.82;;
22186;SDS011;11259;52.146;12.844;2023-03-31T13:40:54;0.60;;;0.60;;
22186;SDS011;11259;52.146;12.844;2023-03-31T13:43:42;0.50;;;0.50;;
22186;SDS011;11259;52.146;12.844;2023-03-31T13:46:32;0.68;;;0.68;;
22186;SDS011;11259;52.146;12.844;2023-03-31T13:49:28;0.75;;;0.73;;
22186;SDS011;11259;52.146;12.844;2023-03-31T13:52:15;0.98;;;0.90;;
22186;SDS011;11259;52.146;12.844;2023-03-31T13:55:01;1.08;;;0.98;;
22186;SDS011;11259;52.146;12.844;2023-03-31T14:00:46;0.70;;;0.70;;
22186;SDS011;11259;52.146;12.844;2023-03-31T14:03:19;0.73;;;0.73;;
22186;SDS011;11259;52.146;12.844;2023-03-31T14:05:52;0.70;;;0.70;;
22186;SDS011;11259;52.146;12.844;2023-03-31T14:08:24;0.68;;;0.68;;
22186;SDS011;11259;52.146;12.844;2023-03-31T14:13:57;0.63;;;0.63;;
22186;SDS011;11259;52.146;12.844;2023-03-31T14:16:23;3.38;;;1.20;;
22186;SDS011;11259;52.146;12.844;2023-03-31T14:18:49;0.70;;;0.70;;
22186;SDS011;11259;52.146;12.844;2023-03-31T14:21:20;0.68;;;0.65;;
22186;SDS011;11259;52.146;12.844;2023-03-31T14:23:48;0.60;;;0.60;;
22186;SDS011;11259;52.146;12.844;2023-03-31T14:26:25;0.77;;;0.77;;
22186;SDS011;11259;52.146;12.844;2023-03-31T14:29:03;0.75;;;0.75;;
22186;SDS011;11259;52.146;12.844;2023-03-31T14:31:33;1.15;;;0.98;;
22186;SDS011;11259;52.146;12.844;2023-03-31T14:34:13;0.90;;;0.90;;
22186;SDS011;11259;52.146;12.844;2023-03-31T14:36:47;1.15;;;0.80;;
22186;SDS011;11259;52.146;12.844;2023-03-31T14:39:19;1.00;;;0.80;;
22186;SDS011;11259;52.146;12.844;2023-03-31T14:41:49;1.35;;;1.05;;
22186;SDS011;11259;52.146;12.844;2023-03-31T14:44:15;0.90;;;0.80;;
22186;SDS011;11259;52.146;12.844;2023-03-31T14:46:41;0.88;;;0.70;;
22186;SDS011;11259;52.146;12.844;2023-03-31T14:49:13;1.00;;;1.00;;
22186;SDS011;11259;52.146;12.844;2023-03-31T14:51:43;0.75;;;0.75;;
22186;SDS011;11259;52.146;12.844;2023-03-31T14:54:14;0.90;;;0.90;;
22186;SDS011;11259;52.146;12.844;2023-03-31T14:56:40;0.90;;;0.73;;
22186;SDS011;11259;52.146;12.844;2023-03-31T14:59:06;0.60;;;0.60;;
22186;SDS011;11259;52.146;12.844;2023-03-31T15:01:32;0.63;;;0.63;;